Time,TemperatureF,DewpointF,PressureIn,WindDirection,WindDirectionDegrees,WindSpeedMPH,WindSpeedGustMPH,Humidity,HourlyPrecipIn,Conditions,Clouds,dailyrainin,SoftwareType,DateUTC
2013-06-26 00:01:00,62.0,34.0,30.30,WNW,299,9.0,13.0,35,0.00,,,0.00,,2013-06-26 06:01:00,
2013-06-26 00:11:00,62.0,34.0,30.30,WNW,299,9.0,13.0,35,0.00,,,0.00,,2013-06-26 06:11:00,
2013-06-26 00:22:00,62.0,34.0,30.28,West,272,5.0,11.0,35,0.00,,,0.00,,2013-06-26 06:22:00,
2013-06-26 00:34:00,61.0,34.0,30.28,West,265,6.0,12.0,36,0.00,,,0.00,,2013-06-26 06:34:00,
2013-06-26 00:43:00,61.0,34.0,30.28,West,265,6.0,12.0,36,0.00,,,0.00,,2013-06-26 06:43:00,
2013-06-26 01:11:00,61.0,35.0,30.28,WNW,283,5.0,13.0,37,0.00,,,0.00,,2013-06-26 07:11:00,
2013-06-26 01:22:00,61.0,35.0,30.28,West,279,4.0,13.0,37,0.00,,,0.00,,2013-06-26 07:22:00,
2013-06-26 01:33:00,60.0,35.0,30.29,South,190,0.0,11.0,39,0.00,,,0.00,,2013-06-26 07:33:00,
2013-06-26 01:43:00,60.0,35.0,30.29,South,190,0.0,11.0,39,0.00,,,0.00,,2013-06-26 07:43:00,
2013-06-26 01:53:00,60.0,34.0,30.29,NW,305,4.0,13.0,38,0.00,,,0.00,,2013-06-26 07:53:00,
2013-06-26 02:01:00,59.0,34.0,30.29,WNW,288,1.0,6.0,39,0.00,,,0.00,,2013-06-26 08:01:00,
2013-06-26 02:11:00,59.0,34.0,30.29,WNW,288,1.0,6.0,39,0.00,,,0.00,,2013-06-26 08:11:00,
2013-06-26 02:22:00,59.0,34.0,30.29,WNW,291,5.0,11.0,39,0.00,,,0.00,,2013-06-26 08:22:00,
2013-06-26 02:33:00,59.0,34.0,30.29,WNW,303,6.0,11.0,39,0.00,,,0.00,,2013-06-26 08:33:00,
2013-06-26 02:42:00,59.0,34.0,30.29,WNW,303,6.0,11.0,39,0.00,,,0.00,,2013-06-26 08:42:00,
2013-06-26 02:53:00,58.0,34.0,30.29,WNW,284,7.0,10.0,40,0.00,,,0.00,,2013-06-26 08:53:00,
2013-06-26 03:01:00,57.0,34.0,30.29,WNW,283,5.0,8.0,41,0.00,,,0.00,,2013-06-26 09:01:00,
2013-06-26 03:11:00,57.0,34.0,30.29,WNW,283,5.0,8.0,41,0.00,,,0.00,,2013-06-26 09:11:00,
2013-06-26 03:22:00,58.0,34.0,30.28,WNW,287,9.0,13.0,41,0.00,,,0.00,,2013-06-26 09:22:00,
2013-06-26 03:32:00,58.0,34.0,30.27,WNW,283,9.0,15.0,40,0.00,,,0.00,,2013-06-26 09:32:00,
2013-06-26 03:43:00,58.0,34.0,30.27,WNW,283,9.0,15.0,40,0.00,,,0.00,,2013-06-26 09:43:00,
2013-06-26 03:53:00,58.0,34.0,30.27,WNW,284,10.0,15.0,41,0.00,,,0.00,,2013-06-26 09:53:00,
2013-06-26 04:01:00,58.0,34.0,30.27,NW,309,10.0,16.0,41,0.00,,,0.00,,2013-06-26 10:01:00,
2013-06-26 04:12:00,58.0,34.0,30.27,NW,309,10.0,16.0,41,0.00,,,0.00,,2013-06-26 10:12:00,
2013-06-26 04:34:00,59.0,35.0,30.26,WSW,248,5.0,13.0,41,0.00,,,0.00,,2013-06-26 10:34:00,
2013-06-26 04:43:00,59.0,35.0,30.26,WSW,248,5.0,13.0,41,0.00,,,0.00,,2013-06-26 10:43:00,
2013-06-26 05:02:00,57.0,35.0,30.29,SSW,203,7.0,12.0,43,0.00,,,0.00,,2013-06-26 11:02:00,
2013-06-26 05:11:00,57.0,35.0,30.29,SSW,203,7.0,12.0,43,0.00,,,0.00,,2013-06-26 11:11:00,
2013-06-26 05:22:00,56.0,35.0,30.28,SW,217,7.0,12.0,45,0.00,,,0.00,,2013-06-26 11:22:00,
2013-06-26 05:32:00,55.0,34.0,30.30,SSW,199,3.0,11.0,45,0.00,,,0.00,,2013-06-26 11:32:00,
2013-06-26 05:44:00,55.0,34.0,30.30,SSW,199,3.0,11.0,45,0.00,,,0.00,,2013-06-26 11:44:00,
2013-06-26 05:52:00,54.0,34.0,30.30,SSW,198,5.0,9.0,47,0.00,,,0.00,,2013-06-26 11:52:00,
2013-06-26 06:02:00,54.0,34.0,30.31,South,180,7.0,11.0,46,0.00,,,0.00,,2013-06-26 12:02:00,
2013-06-26 06:12:00,54.0,34.0,30.31,South,180,7.0,11.0,46,0.00,,,0.00,,2013-06-26 12:12:00,
2013-06-26 06:22:00,53.0,34.0,30.31,South,186,6.0,11.0,49,0.00,,,0.00,,2013-06-26 12:22:00,
2013-06-26 06:33:00,53.0,35.0,30.31,South,191,4.0,10.0,50,0.00,,,0.00,,2013-06-26 12:33:00,
2013-06-26 06:42:00,53.0,35.0,30.31,South,191,4.0,10.0,50,0.00,,,0.00,,2013-06-26 12:42:00,
2013-06-26 06:52:00,54.0,35.0,30.32,South,182,5.0,10.0,48,0.00,,,0.00,,2013-06-26 12:52:00,
2013-06-26 07:11:00,55.0,36.0,30.33,SSW,194,3.0,6.0,48,0.00,,,0.00,,2013-06-26 13:11:00,
2013-06-26 08:34:00,67.0,38.0,30.33,South,179,8.0,11.0,34,0.00,,,0.00,,2013-06-26 14:34:00,
2013-06-26 08:42:00,67.0,38.0,30.33,South,179,8.0,11.0,34,0.00,,,0.00,,2013-06-26 14:42:00,
2013-06-26 09:11:00,70.0,39.0,30.35,SSW,203,6.0,12.0,32,0.00,,,0.00,,2013-06-26 15:11:00,
2013-06-26 09:34:00,74.0,40.0,30.34,SSW,198,5.0,15.0,29,0.00,,,0.00,,2013-06-26 15:34:00,
2013-06-26 09:44:00,74.0,40.0,30.34,SSW,198,5.0,15.0,29,0.00,,,0.00,,2013-06-26 15:44:00,
2013-06-26 09:53:00,74.0,38.0,30.34,NW,317,4.0,14.0,27,0.00,,,0.00,,2013-06-26 15:53:00,
2013-06-26 10:01:00,76.0,39.0,30.33,SW,217,8.0,15.0,26,0.00,,,0.00,,2013-06-26 16:01:00,
2013-06-26 10:11:00,76.0,39.0,30.33,SW,217,8.0,15.0,26,0.00,,,0.00,,2013-06-26 16:11:00,
2013-06-26 10:22:00,76.0,39.0,30.34,SW,227,5.0,14.0,26,0.00,,,0.00,,2013-06-26 16:22:00,
2013-06-26 10:34:00,76.0,39.0,30.35,WSW,242,10.0,20.0,26,0.00,,,0.00,,2013-06-26 16:34:00,
2013-06-26 10:43:00,76.0,39.0,30.35,WSW,242,10.0,20.0,26,0.00,,,0.00,,2013-06-26 16:43:00,
2013-06-26 10:52:00,76.0,39.0,30.34,SW,220,10.0,22.0,26,0.00,,,0.00,,2013-06-26 16:52:00,
2013-06-26 11:01:00,77.0,39.0,30.34,SW,221,10.0,18.0,26,0.00,,,0.00,,2013-06-26 17:01:00,
2013-06-26 11:11:00,77.0,39.0,30.34,SW,221,10.0,18.0,26,0.00,,,0.00,,2013-06-26 17:11:00,
2013-06-26 11:23:00,77.0,39.0,30.35,SSW,193,9.0,17.0,26,0.00,,,0.00,,2013-06-26 17:23:00,
2013-06-26 11:33:00,78.0,38.0,30.32,SSW,200,4.0,16.0,24,0.00,,,0.00,,2013-06-26 17:33:00,
2013-06-26 11:43:00,78.0,38.0,30.32,SSW,200,4.0,16.0,24,0.00,,,0.00,,2013-06-26 17:43:00,
2013-06-26 11:52:00,79.0,39.0,30.33,SW,219,8.0,18.0,24,0.00,,,0.00,,2013-06-26 17:52:00,
2013-06-26 12:01:00,77.0,40.0,30.34,SSW,202,7.0,17.0,27,0.00,,,0.00,,2013-06-26 18:01:00,
2013-06-26 12:11:00,77.0,40.0,30.34,SSW,202,7.0,17.0,27,0.00,,,0.00,,2013-06-26 18:11:00,
2013-06-26 12:22:00,78.0,38.0,30.32,West,272,9.0,26.0,24,0.00,,,0.00,,2013-06-26 18:22:00,
2013-06-26 12:34:00,78.0,38.0,30.32,SSW,200,0.0,15.0,24,0.00,,,0.00,,2013-06-26 18:34:00,
2013-06-26 12:43:00,78.0,38.0,30.32,SSW,200,0.0,15.0,24,0.00,,,0.00,,2013-06-26 18:43:00,
2013-06-26 12:52:00,79.0,38.0,30.32,WSW,247,7.0,16.0,23,0.00,,,0.00,,2013-06-26 18:52:00,
2013-06-26 13:01:00,80.0,37.0,30.32,SW,233,11.0,20.0,21,0.00,,,0.00,,2013-06-26 19:01:00,
2013-06-26 13:11:00,80.0,37.0,30.32,SW,233,11.0,20.0,21,0.00,,,0.00,,2013-06-26 19:11:00,
2013-06-26 13:22:00,81.0,36.0,30.32,West,275,6.0,13.0,20,0.00,,,0.00,,2013-06-26 19:22:00,
2013-06-26 13:33:00,82.0,38.0,30.31,NE,34,0.0,11.0,21,0.00,,,0.00,,2013-06-26 19:33:00,
2013-06-26 13:42:00,82.0,38.0,30.31,NE,34,0.0,11.0,21,0.00,,,0.00,,2013-06-26 19:42:00,
2013-06-26 13:52:00,81.0,39.0,30.31,SSW,205,10.0,17.0,22,0.00,,,0.00,,2013-06-26 19:52:00,
2013-06-26 14:01:00,83.0,40.0,30.32,SSW,199,5.0,15.0,22,0.00,,,0.00,,2013-06-26 20:01:00,
2013-06-26 14:12:00,83.0,40.0,30.32,SSW,199,5.0,15.0,22,0.00,,,0.00,,2013-06-26 20:12:00,
2013-06-26 14:22:00,81.0,39.0,30.31,WSW,246,5.0,21.0,22,0.00,,,0.00,,2013-06-26 20:22:00,
2013-06-26 14:33:00,83.0,40.0,30.33,SSW,196,7.0,20.0,22,0.00,,,0.00,,2013-06-26 20:33:00,
2013-06-26 14:43:00,83.0,40.0,30.33,SSW,196,7.0,20.0,22,0.00,,,0.00,,2013-06-26 20:43:00,
2013-06-26 14:52:00,83.0,39.0,30.31,SW,225,10.0,17.0,21,0.00,,,0.00,,2013-06-26 20:52:00,
2013-06-26 15:02:00,84.0,39.0,30.32,WNW,290,7.0,16.0,20,0.00,,,0.00,,2013-06-26 21:02:00,
2013-06-26 15:11:00,84.0,39.0,30.32,WNW,290,7.0,16.0,20,0.00,,,0.00,,2013-06-26 21:11:00,
2013-06-26 15:23:00,83.0,39.0,30.32,SSW,205,4.0,15.0,21,0.00,,,0.00,,2013-06-26 21:23:00,
2013-06-26 15:33:00,82.0,39.0,30.33,SSW,209,6.0,16.0,22,0.00,,,0.00,,2013-06-26 21:33:00,
2013-06-26 15:43:00,82.0,39.0,30.33,SSW,209,6.0,16.0,22,0.00,,,0.00,,2013-06-26 21:43:00,
2013-06-26 15:52:00,84.0,40.0,30.32,South,173,8.0,16.0,21,0.00,,,0.00,,2013-06-26 21:52:00,
2013-06-26 16:01:00,84.0,39.0,30.32,SSW,206,8.0,13.0,20,0.00,,,0.00,,2013-06-26 22:01:00,
2013-06-26 16:11:00,84.0,39.0,30.32,SSW,206,8.0,13.0,20,0.00,,,0.00,,2013-06-26 22:11:00,
2013-06-26 16:22:00,83.0,38.0,30.32,West,265,8.0,21.0,20,0.00,,,0.00,,2013-06-26 22:22:00,
2013-06-26 16:33:00,83.0,38.0,30.32,WSW,248,9.0,16.0,20,0.00,,,0.00,,2013-06-26 22:33:00,
2013-06-26 16:43:00,83.0,38.0,30.32,WSW,248,9.0,16.0,20,0.00,,,0.00,,2013-06-26 22:43:00,
2013-06-26 16:52:00,84.0,39.0,30.30,WNW,300,4.0,15.0,20,0.00,,,0.00,,2013-06-26 22:52:00,
2013-06-26 17:01:00,85.0,39.0,30.31,South,178,4.0,14.0,20,0.00,,,0.00,,2013-06-26 23:01:00,
2013-06-26 17:11:00,85.0,39.0,30.31,South,178,4.0,14.0,20,0.00,,,0.00,,2013-06-26 23:11:00,
2013-06-26 17:22:00,84.0,39.0,30.31,WSW,245,7.0,18.0,20,0.00,,,0.00,,2013-06-26 23:22:00,
2013-06-26 17:34:00,83.0,38.0,30.32,SW,223,10.0,16.0,20,0.00,,,0.00,,2013-06-26 23:34:00,
2013-06-26 17:43:00,83.0,38.0,30.32,SW,223,10.0,16.0,20,0.00,,,0.00,,2013-06-26 23:43:00,
2013-06-26 17:53:00,83.0,38.0,30.31,South,178,0.0,12.0,20,0.00,,,0.00,,2013-06-26 23:53:00,
2013-06-26 18:01:00,83.0,38.0,30.31,SW,229,1.0,17.0,20,0.00,,,0.00,,2013-06-27 00:01:00,
2013-06-26 18:11:00,83.0,38.0,30.31,SW,229,1.0,17.0,20,0.00,,,0.00,,2013-06-27 00:11:00,
2013-06-26 18:22:00,81.0,36.0,30.31,WNW,282,4.0,10.0,20,0.00,,,0.00,,2013-06-27 00:22:00,
2013-06-26 18:33:00,82.0,37.0,30.31,SSW,194,6.0,14.0,20,0.00,,,0.00,,2013-06-27 00:33:00,
2013-06-26 18:42:00,83.0,38.0,30.31,WSW,238,4.0,14.0,20,0.00,,,0.00,,2013-06-27 00:42:00,
2013-06-26 18:53:00,82.0,36.0,30.32,WSW,240,6.0,13.0,19,0.00,,,0.00,,2013-06-27 00:53:00,
2013-06-26 19:01:00,82.0,36.0,30.32,WSW,240,6.0,13.0,19,0.00,,,0.00,,2013-06-27 01:01:00,
2013-06-26 19:11:00,82.0,36.0,30.32,WSW,240,6.0,13.0,19,0.00,,,0.00,,2013-06-27 01:11:00,
2013-06-26 19:21:00,82.0,34.0,30.32,WSW,237,1.0,6.0,18,0.00,,,0.00,,2013-06-27 01:21:00,
2013-06-26 19:32:00,81.0,33.0,30.32,SSW,198,0.0,11.0,18,0.00,,,0.00,,2013-06-27 01:32:00,
2013-06-26 19:43:00,81.0,33.0,30.32,SSW,198,0.0,11.0,18,0.00,,,0.00,,2013-06-27 01:43:00,
2013-06-26 19:53:00,79.0,33.0,30.32,SW,225,3.0,15.0,19,0.00,,,0.00,,2013-06-27 01:53:00,
2013-06-26 20:01:00,79.0,33.0,30.32,WSW,256,3.0,15.0,19,0.00,,,0.00,,2013-06-27 02:01:00,
2013-06-26 20:11:00,79.0,33.0,30.32,WSW,256,3.0,15.0,19,0.00,,,0.00,,2013-06-27 02:11:00,
2013-06-26 20:22:00,79.0,33.0,30.32,SSE,165,3.0,9.0,19,0.00,,,0.00,,2013-06-27 02:22:00,
2013-06-26 20:32:00,79.0,33.0,30.32,NNW,333,4.0,13.0,19,0.00,,,0.00,,2013-06-27 02:32:00,
2013-06-26 20:42:00,79.0,33.0,30.32,NNW,333,4.0,13.0,19,0.00,,,0.00,,2013-06-27 02:42:00,
2013-06-26 20:52:00,76.0,34.0,30.35,SW,225,2.0,4.0,22,0.00,,,0.00,,2013-06-27 02:52:00,
2013-06-26 21:02:00,76.0,34.0,30.35,SW,225,2.0,4.0,22,0.00,,,0.00,,2013-06-27 03:02:00,
2013-06-26 21:11:00,75.0,36.0,30.35,SW,232,3.0,10.0,24,0.00,,,0.00,,2013-06-27 03:11:00,
2013-06-26 21:21:00,75.0,36.0,30.35,SW,228,2.0,6.0,24,0.00,,,0.00,,2013-06-27 03:21:00,
2013-06-26 21:32:00,74.0,36.0,30.35,West,279,5.0,10.0,25,0.00,,,0.00,,2013-06-27 03:32:00,
2013-06-26 21:42:00,74.0,36.0,30.35,WNW,283,3.0,10.0,25,0.00,,,0.00,,2013-06-27 03:42:00,
2013-06-26 21:52:00,74.0,36.0,30.35,WNW,283,3.0,10.0,25,0.00,,,0.00,,2013-06-27 03:52:00,
2013-06-26 22:01:00,74.0,36.0,30.35,WNW,283,3.0,10.0,25,0.00,,,0.00,,2013-06-27 04:01:00,
2013-06-26 22:11:00,72.0,35.0,30.38,West,271,3.0,9.0,26,0.00,,,0.00,,2013-06-27 04:11:00,
2013-06-26 22:32:00,72.0,36.0,30.37,WNW,302,5.0,10.0,27,0.00,,,0.00,,2013-06-27 04:32:00,
2013-06-26 22:42:00,72.0,36.0,30.37,WNW,302,5.0,10.0,27,0.00,,,0.00,,2013-06-27 04:42:00,
2013-06-26 22:52:00,70.0,35.0,30.38,West,269,8.0,12.0,28,0.00,,,0.00,,2013-06-27 04:52:00,
2013-06-26 23:02:00,70.0,35.0,30.38,West,269,8.0,12.0,28,0.00,,,0.00,,2013-06-27 05:02:00,
2013-06-26 23:12:00,70.0,34.0,30.38,West,276,6.0,12.0,27,0.00,,,0.00,,2013-06-27 05:12:00,
2013-06-26 23:22:00,69.0,34.0,30.39,West,279,6.0,12.0,27,0.00,,,0.00,,2013-06-27 05:22:00,
2013-06-26 23:32:00,68.0,33.0,30.39,WNW,291,5.0,10.0,27,0.00,,,0.00,,2013-06-27 05:32:00,
2013-06-26 23:42:00,68.0,33.0,30.39,WNW,291,5.0,10.0,27,0.00,,,0.00,,2013-06-27 05:42:00,
2013-06-26 23:53:00,68.0,33.0,30.39,WNW,299,3.0,11.0,27,0.00,,,0.00,,2013-06-27 05:53:00,